createdAt,value
2023-01-19T00:00:59.608Z,4.22
2023-01-19T00:03:29.717Z,3.70
2023-01-19T00:05:56.676Z,2.90
2023-01-19T00:08:23.540Z,4.13
2023-01-19T00:10:51.039Z,4.53
2023-01-19T00:13:18.147Z,4.38
2023-01-19T00:15:45.291Z,5.00
2023-01-19T00:18:12.148Z,5.15
2023-01-19T00:20:39.997Z,5.07
2023-01-19T00:23:07.463Z,3.83
2023-01-19T00:25:34.787Z,3.38
2023-01-19T00:28:01.995Z,3.83
2023-01-19T00:30:29.401Z,3.30
2023-01-19T00:32:56.472Z,3.80
2023-01-19T00:35:23.383Z,4.90
2023-01-19T00:37:50.422Z,5.53
2023-01-19T00:40:17.958Z,4.45
2023-01-19T00:42:44.904Z,7.43
2023-01-19T00:45:14.783Z,6.20
2023-01-19T00:47:42.503Z,6.70
2023-01-19T00:50:11.592Z,6.57
2023-01-19T00:52:39.936Z,7.10
2023-01-19T00:55:12.278Z,7.63
2023-01-19T00:57:39.771Z,5.77
2023-01-19T01:00:09.882Z,4.95
2023-01-19T01:02:37.012Z,3.45
2023-01-19T01:05:05.070Z,3.72
2023-01-19T01:07:33.742Z,4.32
2023-01-19T01:10:01.045Z,3.80
2023-01-19T01:12:28.004Z,3.40
2023-01-19T01:14:54.859Z,3.38
2023-01-19T01:17:21.740Z,3.20
2023-01-19T01:19:48.682Z,2.60
2023-01-19T01:22:15.703Z,2.53
2023-01-19T01:24:42.665Z,2.80
2023-01-19T01:27:09.569Z,3.30
2023-01-19T01:29:36.458Z,3.03
2023-01-19T01:32:06.102Z,2.97
2023-01-19T01:34:33.037Z,3.50
2023-01-19T01:36:59.882Z,3.40
2023-01-19T01:39:29.459Z,3.47
2023-01-19T01:41:56.318Z,2.60
2023-01-19T01:44:50.621Z,2.88
2023-01-19T01:47:39.888Z,2.70
2023-01-19T01:50:09.479Z,2.50
2023-01-19T01:52:42.927Z,2.60
2023-01-19T01:55:32.614Z,2.70
2023-01-19T01:58:04.144Z,2.28
2023-01-19T02:00:31.675Z,2.23
2023-01-19T02:02:58.983Z,2.85
2023-01-19T02:05:33.467Z,2.28
2023-01-19T02:08:16.961Z,2.60
2023-01-19T02:10:44.599Z,2.58
2023-01-19T02:13:12.888Z,2.67
2023-01-19T02:15:39.770Z,3.40
2023-01-19T02:18:06.751Z,4.40
2023-01-19T02:20:36.866Z,4.25
2023-01-19T02:23:13.554Z,5.38
2023-01-19T02:25:40.498Z,5.33
2023-01-19T02:28:08.079Z,5.28
2023-01-19T02:30:38.177Z,3.75
2023-01-19T02:33:05.217Z,3.13
2023-01-19T02:35:32.999Z,2.85
2023-01-19T02:38:01.452Z,2.47
2023-01-19T02:40:28.793Z,2.00
2023-01-19T02:42:59.649Z,2.35
2023-01-19T02:45:27.524Z,2.65
2023-01-19T02:47:54.967Z,2.70
2023-01-19T02:51:00.034Z,3.60
2023-01-19T02:53:32.806Z,5.80
2023-01-19T02:56:23.681Z,4.40
2023-01-19T02:59:01.592Z,3.75
2023-01-19T03:01:56.421Z,2.55
2023-01-19T03:04:41.662Z,1.77
2023-01-19T03:07:11.731Z,2.92
2023-01-19T03:09:49.861Z,4.78
2023-01-19T03:12:25.837Z,8.90
2023-01-19T03:14:55.947Z,9.90
2023-01-19T03:17:23.096Z,8.17
2023-01-19T03:19:52.993Z,6.22
2023-01-19T03:22:25.291Z,7.28
2023-01-19T03:24:54.724Z,7.30
2023-01-19T03:27:29.429Z,7.72
2023-01-19T03:30:01.138Z,6.37
2023-01-19T03:32:57.069Z,5.38
2023-01-19T03:35:26.715Z,9.00
2023-01-19T03:37:56.675Z,10.88
2023-01-19T03:40:27.154Z,10.77
2023-01-19T03:42:54.934Z,9.67
2023-01-19T03:45:23.111Z,9.18
2023-01-19T03:47:50.396Z,10.38
2023-01-19T03:50:35.613Z,9.73
2023-01-19T03:53:07.207Z,8.77
2023-01-19T03:55:36.201Z,7.93
2023-01-19T03:58:03.014Z,9.45
2023-01-19T04:00:29.908Z,8.93
2023-01-19T04:02:56.967Z,7.90
2023-01-19T04:05:24.401Z,8.38
2023-01-19T04:07:53.698Z,7.77
2023-01-19T04:10:21.290Z,9.07
2023-01-19T04:12:49.021Z,6.75
2023-01-19T04:15:16.587Z,5.90
2023-01-19T04:17:43.551Z,5.90
2023-01-19T04:20:10.952Z,5.57
2023-01-19T04:22:37.796Z,6.25
2023-01-19T04:25:05.341Z,5.53
2023-01-19T04:27:32.360Z,5.80
2023-01-19T04:29:59.272Z,5.53
2023-01-19T04:32:26.429Z,5.03
2023-01-19T04:34:53.382Z,5.25
2023-01-19T04:37:20.248Z,5.10
2023-01-19T04:39:47.148Z,6.10
2023-01-19T04:42:14.086Z,5.50
2023-01-19T04:44:40.908Z,5.33
2023-01-19T04:47:07.881Z,6.10
2023-01-19T04:49:34.827Z,5.45
2023-01-19T04:52:01.701Z,4.60
2023-01-19T04:54:28.687Z,5.90
2023-01-19T04:56:55.574Z,6.20
2023-01-19T04:59:22.511Z,5.03
2023-01-19T05:01:49.467Z,5.05
2023-01-19T05:04:16.619Z,4.68
2023-01-19T05:06:43.545Z,4.85
2023-01-19T05:09:11.910Z,6.53
2023-01-19T05:11:39.010Z,4.95
2023-01-19T05:14:06.065Z,4.80
2023-01-19T05:16:33.934Z,6.05
2023-01-19T05:19:01.029Z,5.35
2023-01-19T05:21:28.011Z,4.93
2023-01-19T05:23:54.867Z,5.68
2023-01-19T05:26:21.898Z,5.72
2023-01-19T05:28:48.842Z,5.00
2023-01-19T05:31:18.676Z,5.65
2023-01-19T05:33:46.455Z,5.40
2023-01-19T05:36:13.288Z,6.05
2023-01-19T05:38:40.185Z,5.35
2023-01-19T05:41:07.088Z,5.88
2023-01-19T05:43:33.989Z,5.82
2023-01-19T05:46:01.056Z,5.33
2023-01-19T05:48:28.036Z,5.90
2023-01-19T05:50:58.620Z,7.05
2023-01-19T05:53:25.582Z,8.55
2023-01-19T05:55:52.591Z,8.45
2023-01-19T05:58:19.542Z,8.50
2023-01-19T06:00:46.387Z,8.43
2023-01-19T06:03:13.307Z,8.50
2023-01-19T06:05:40.283Z,8.90
2023-01-19T06:08:07.215Z,11.35
2023-01-19T06:10:34.074Z,12.67
2023-01-19T06:13:01.194Z,11.55
2023-01-19T06:15:28.432Z,10.75
2023-01-19T06:17:55.308Z,9.40
2023-01-19T06:20:22.270Z,10.20
2023-01-19T06:22:49.350Z,9.60
2023-01-19T06:25:16.238Z,9.15
2023-01-19T06:27:45.871Z,9.93
2023-01-19T06:30:13.748Z,12.10
2023-01-19T06:32:40.624Z,13.70
2023-01-19T06:35:07.736Z,13.93
2023-01-19T06:37:34.921Z,13.15
2023-01-19T06:40:01.929Z,12.90
2023-01-19T06:42:28.886Z,11.40
2023-01-19T06:44:55.903Z,11.77
2023-01-19T06:47:22.877Z,12.67
2023-01-19T06:49:49.805Z,11.27
2023-01-19T06:52:17.106Z,13.20
2023-01-19T06:54:47.360Z,12.30
2023-01-19T06:57:14.942Z,13.73
2023-01-19T06:59:41.997Z,12.57
2023-01-19T07:02:26.441Z,12.05
2023-01-19T07:04:56.335Z,12.55
2023-01-19T07:07:23.323Z,12.48
2023-01-19T07:09:50.192Z,13.13
2023-01-19T07:12:21.075Z,14.57
2023-01-19T07:14:50.237Z,14.02
2023-01-19T07:17:17.490Z,13.20
2023-01-19T07:19:44.620Z,15.43
2023-01-19T07:22:11.554Z,15.07
2023-01-19T07:24:38.432Z,12.63
2023-01-19T07:27:05.351Z,14.38
2023-01-19T07:29:32.308Z,13.60
2023-01-19T07:31:59.222Z,13.80
2023-01-19T07:34:26.044Z,14.13
2023-01-19T07:36:52.943Z,13.77
2023-01-19T07:39:19.771Z,15.23
2023-01-19T07:41:48.548Z,15.68
2023-01-19T07:44:15.717Z,15.27
2023-01-19T07:46:42.620Z,15.63
2023-01-19T07:49:09.647Z,15.17
2023-01-19T07:51:36.691Z,14.48
2023-01-19T07:54:03.616Z,15.95
2023-01-19T07:56:32.614Z,15.15
2023-01-19T07:58:59.772Z,15.73
2023-01-19T08:01:26.665Z,16.53
2023-01-19T08:03:53.642Z,15.88
2023-01-19T08:06:23.596Z,16.83
2023-01-19T08:08:50.953Z,18.02
2023-01-19T08:11:17.931Z,17.60
2023-01-19T08:13:44.797Z,17.23
2023-01-19T08:16:11.804Z,19.33
2023-01-19T08:18:38.696Z,16.85
2023-01-19T08:21:06.250Z,19.23
2023-01-19T08:23:33.177Z,18.55
2023-01-19T08:26:00.143Z,18.87
2023-01-19T08:28:27.149Z,18.80
2023-01-19T08:30:54.291Z,19.40
2023-01-19T08:33:22.992Z,17.92
2023-01-19T08:35:52.927Z,19.83
2023-01-19T08:38:19.975Z,18.60
2023-01-19T08:40:47.128Z,19.20
2023-01-19T08:43:16.291Z,16.35
2023-01-19T08:45:46.675Z,15.27
2023-01-19T08:48:13.906Z,14.13
2023-01-19T08:50:41.044Z,14.20
2023-01-19T08:53:08.407Z,15.18
2023-01-19T08:55:37.066Z,14.70
2023-01-19T08:58:05.063Z,13.85
2023-01-19T09:00:34.083Z,15.32
2023-01-19T09:03:02.319Z,14.23
2023-01-19T09:05:30.556Z,15.68
2023-01-19T09:07:57.471Z,14.05
2023-01-19T09:10:25.033Z,12.23
2023-01-19T09:12:51.910Z,13.35
2023-01-19T09:15:20.208Z,12.97
2023-01-19T09:17:47.064Z,13.73
2023-01-19T09:20:14.090Z,13.38
2023-01-19T09:22:40.957Z,12.38
2023-01-19T09:25:08.411Z,12.43
2023-01-19T09:27:35.578Z,12.43
2023-01-19T09:30:03.860Z,12.43
2023-01-19T09:32:30.786Z,11.25
2023-01-19T09:34:57.759Z,11.40
2023-01-19T09:37:24.658Z,11.85
2023-01-19T09:39:51.635Z,11.67
2023-01-19T09:42:31.369Z,13.02
2023-01-19T09:44:58.960Z,14.13
2023-01-19T09:47:29.896Z,12.35
2023-01-19T09:50:05.357Z,13.27
2023-01-19T09:52:36.443Z,12.60
2023-01-19T09:55:03.558Z,12.90
2023-01-19T09:57:31.310Z,14.07
2023-01-19T09:59:58.404Z,13.15
2023-01-19T10:02:39.534Z,13.68
2023-01-19T10:05:32.552Z,13.70
2023-01-19T10:08:14.543Z,12.77
2023-01-19T10:10:47.308Z,13.93
2023-01-19T10:13:35.819Z,12.63
2023-01-19T10:16:14.780Z,14.02
2023-01-19T10:18:46.871Z,13.93
2023-01-19T10:21:19.355Z,14.30
2023-01-19T10:24:13.497Z,14.13
2023-01-19T10:26:45.828Z,14.63
2023-01-19T10:29:39.099Z,15.73
2023-01-19T10:32:12.220Z,13.40
2023-01-19T10:34:39.403Z,14.48
2023-01-19T10:37:22.944Z,13.75
2023-01-19T10:39:55.602Z,11.20
2023-01-19T10:42:22.884Z,10.95
2023-01-19T10:44:50.031Z,10.23
2023-01-19T10:47:19.452Z,9.80
2023-01-19T10:49:48.315Z,8.95
2023-01-19T10:52:36.230Z,7.03
2023-01-19T10:55:06.119Z,6.78
2023-01-19T10:57:40.933Z,9.33
2023-01-19T11:00:38.307Z,7.18
2023-01-19T11:03:24.876Z,7.30
2023-01-19T11:05:52.076Z,8.45
2023-01-19T11:08:30.058Z,7.97
2023-01-19T11:11:03.401Z,7.83
2023-01-19T11:13:30.811Z,7.07
2023-01-19T11:16:14.403Z,7.00
2023-01-19T11:18:42.818Z,8.38
2023-01-19T11:21:13.461Z,7.68
2023-01-19T11:23:52.790Z,6.17
2023-01-19T11:26:40.054Z,6.22
2023-01-19T11:29:23.339Z,6.43
2023-01-19T11:31:51.745Z,7.07
2023-01-19T11:34:26.616Z,8.35
2023-01-19T11:37:23.850Z,7.30
2023-01-19T11:39:53.274Z,6.10
2023-01-19T11:42:20.833Z,5.30
2023-01-19T11:45:13.641Z,5.88
2023-01-19T11:47:44.459Z,5.57
2023-01-19T11:50:14.025Z,5.10
2023-01-19T11:52:50.998Z,5.40
2023-01-19T11:55:42.522Z,5.10
2023-01-19T11:58:15.961Z,5.00
2023-01-19T12:01:17.800Z,5.25
2023-01-19T12:03:49.224Z,5.70
2023-01-19T12:06:20.678Z,5.95
2023-01-19T12:08:53.785Z,6.28
2023-01-19T12:11:30.130Z,5.50
2023-01-19T12:13:57.480Z,4.55
2023-01-19T12:16:29.066Z,5.13
2023-01-19T12:19:00.613Z,3.72
2023-01-19T12:21:27.649Z,3.85
2023-01-19T12:24:15.952Z,3.83
2023-01-19T12:26:51.470Z,3.97
2023-01-19T12:29:21.543Z,4.30
2023-01-19T12:32:27.038Z,4.40
2023-01-19T12:34:53.939Z,4.93
2023-01-19T12:37:43.098Z,5.10
2023-01-19T12:40:27.045Z,5.15
2023-01-19T12:43:06.028Z,5.30
2023-01-19T12:45:37.567Z,6.15
2023-01-19T12:48:05.593Z,5.57
2023-01-19T12:50:39.106Z,6.65
2023-01-19T12:53:18.171Z,5.82
2023-01-19T12:55:45.734Z,6.30
2023-01-19T12:58:24.820Z,6.50
2023-01-19T13:01:19.211Z,6.47
2023-01-19T13:04:02.085Z,7.07
2023-01-19T13:06:47.397Z,8.02
2023-01-19T13:09:32.000Z,7.33
2023-01-19T13:12:15.757Z,7.28
2023-01-19T13:14:43.617Z,7.65
2023-01-19T13:17:33.449Z,7.68
2023-01-19T13:20:05.151Z,7.78
2023-01-19T13:22:47.074Z,7.37
2023-01-19T13:25:27.903Z,7.80
2023-01-19T13:27:55.277Z,7.82
2023-01-19T13:30:26.286Z,7.68
2023-01-19T13:32:56.997Z,7.60
2023-01-19T13:35:24.843Z,6.97
2023-01-19T13:37:52.491Z,7.22
2023-01-19T13:40:26.437Z,7.28
2023-01-19T13:42:54.675Z,7.38
2023-01-19T13:45:34.260Z,6.80
2023-01-19T13:48:05.536Z,6.83
2023-01-19T13:50:36.979Z,6.68
2023-01-19T13:53:04.020Z,7.40
2023-01-19T13:55:32.207Z,7.00
2023-01-19T13:57:59.189Z,6.88
2023-01-19T14:00:29.284Z,7.17
2023-01-19T14:03:17.061Z,7.20
2023-01-19T14:05:45.041Z,8.23
2023-01-19T14:08:15.705Z,7.63
2023-01-19T14:10:54.889Z,7.40
2023-01-19T14:13:24.215Z,6.77
2023-01-19T14:15:56.140Z,7.00
2023-01-19T14:18:26.995Z,6.95
2023-01-19T14:21:04.591Z,7.30
2023-01-19T14:23:54.566Z,11.75
2023-01-19T14:27:08.391Z,8.30
2023-01-19T14:29:36.778Z,5.47
2023-01-19T14:32:03.649Z,5.72
2023-01-19T14:34:55.447Z,5.43
2023-01-19T14:37:28.652Z,6.35
2023-01-19T14:40:01.147Z,7.70
2023-01-19T14:42:32.579Z,13.05
2023-01-19T14:45:02.300Z,13.48
2023-01-19T14:47:38.713Z,17.35
2023-01-19T14:50:23.384Z,19.88
2023-01-19T14:52:57.851Z,19.17
2023-01-19T14:55:33.995Z,18.73
2023-01-19T14:58:01.164Z,17.05
2023-01-19T15:00:28.734Z,14.63
2023-01-19T15:02:55.654Z,17.30
2023-01-19T15:05:23.537Z,18.13
2023-01-19T15:07:50.471Z,20.92
2023-01-19T15:10:22.122Z,20.70
2023-01-19T15:12:51.342Z,15.65
2023-01-19T15:15:41.026Z,14.98
2023-01-19T15:18:15.476Z,25.70
2023-01-19T15:20:42.376Z,15.15
2023-01-19T15:23:12.583Z,10.18
2023-01-19T15:25:40.041Z,9.70
2023-01-19T15:28:13.258Z,11.48
2023-01-19T15:30:40.353Z,9.27
2023-01-19T15:33:12.682Z,9.23
2023-01-19T15:35:39.552Z,8.55
2023-01-19T15:38:06.440Z,7.63
2023-01-19T15:40:33.355Z,7.95
2023-01-19T15:43:00.220Z,7.17
2023-01-19T15:45:38.178Z,7.78
2023-01-19T15:48:07.982Z,6.32
2023-01-19T15:50:47.497Z,6.75
2023-01-19T15:53:19.411Z,6.93
2023-01-19T15:55:53.065Z,8.97
2023-01-19T15:58:20.032Z,6.68
2023-01-19T16:00:54.714Z,7.55
2023-01-19T16:03:21.966Z,7.47
2023-01-19T16:05:49.065Z,6.75
2023-01-19T16:08:16.100Z,6.63
2023-01-19T16:10:43.422Z,7.63
2023-01-19T16:13:11.794Z,7.13
2023-01-19T16:15:40.238Z,6.75
2023-01-19T16:18:07.226Z,6.30
2023-01-19T16:20:34.486Z,5.87
2023-01-19T16:23:16.518Z,6.97
2023-01-19T16:25:43.639Z,6.97
2023-01-19T16:28:10.562Z,7.00
2023-01-19T16:30:37.523Z,6.80
2023-01-19T16:33:04.484Z,6.70
2023-01-19T16:35:31.517Z,6.50
2023-01-19T16:37:58.347Z,5.97
2023-01-19T16:40:26.477Z,5.10
2023-01-19T16:42:53.306Z,7.30
2023-01-19T16:45:20.249Z,8.27
2023-01-19T16:47:47.176Z,7.43
2023-01-19T16:50:13.987Z,5.88
2023-01-19T16:52:40.969Z,6.10
2023-01-19T16:55:14.592Z,6.75
2023-01-19T16:57:41.770Z,5.60
2023-01-19T17:00:09.918Z,6.43
2023-01-19T17:02:37.157Z,6.57
2023-01-19T17:05:04.691Z,5.90
2023-01-19T17:07:34.204Z,5.85
2023-01-19T17:10:01.187Z,5.60
2023-01-19T17:13:01.275Z,5.53
2023-01-19T17:15:28.421Z,5.38
2023-01-19T17:17:55.239Z,6.85
2023-01-19T17:20:22.142Z,7.45
2023-01-19T17:22:52.152Z,7.03
2023-01-19T17:25:19.195Z,6.27
2023-01-19T17:27:49.173Z,6.90
2023-01-19T17:30:16.571Z,6.15
2023-01-19T17:32:43.615Z,6.10
2023-01-19T17:35:10.709Z,6.30
2023-01-19T17:37:37.617Z,7.03
2023-01-19T17:40:04.845Z,7.68
2023-01-19T17:42:31.816Z,7.65
2023-01-19T17:45:01.625Z,7.60
2023-01-19T17:47:28.574Z,8.80
2023-01-19T17:49:55.721Z,9.47
2023-01-19T17:52:22.802Z,8.93
2023-01-19T17:54:49.701Z,8.10
2023-01-19T17:57:18.895Z,8.50
2023-01-19T17:59:46.860Z,8.40
2023-01-19T18:02:14.213Z,8.67
2023-01-19T18:04:44.056Z,8.20
2023-01-19T18:07:10.911Z,7.18
2023-01-19T18:09:37.797Z,7.40
2023-01-19T18:12:04.927Z,6.57
2023-01-19T18:14:31.851Z,7.27
2023-01-19T18:16:58.809Z,8.05
2023-01-19T18:19:25.755Z,7.88
2023-01-19T18:21:52.668Z,6.43
2023-01-19T18:24:19.770Z,5.80
2023-01-19T18:26:46.637Z,5.70
2023-01-19T18:29:16.253Z,6.72
2023-01-19T18:31:43.528Z,7.90
2023-01-19T18:34:10.570Z,6.70
2023-01-19T18:36:37.495Z,7.38
2023-01-19T18:39:04.655Z,6.00
2023-01-19T18:41:31.528Z,5.25
2023-01-19T18:44:01.541Z,5.20
2023-01-19T18:46:28.635Z,6.10
2023-01-19T18:48:55.645Z,5.47
2023-01-19T18:51:22.689Z,4.83
2023-01-19T18:53:49.726Z,6.45
2023-01-19T18:56:16.858Z,5.75
2023-01-19T18:58:46.981Z,5.20
2023-01-19T19:01:23.926Z,5.85
2023-01-19T19:03:52.038Z,8.40
2023-01-19T19:06:19.280Z,10.70
2023-01-19T19:08:46.950Z,10.40
2023-01-19T19:11:14.284Z,8.07
2023-01-19T19:13:41.670Z,9.57
2023-01-19T19:16:11.440Z,11.90
2023-01-19T19:18:39.431Z,10.43
2023-01-19T19:21:11.570Z,8.77
2023-01-19T19:23:39.058Z,9.35
2023-01-19T19:26:10.820Z,10.63
2023-01-19T19:28:39.668Z,10.13
2023-01-19T19:31:09.825Z,9.55
2023-01-19T19:33:40.774Z,9.55
2023-01-19T19:36:09.209Z,7.47
2023-01-19T19:38:36.727Z,11.25
2023-01-19T19:41:08.500Z,12.87
2023-01-19T19:43:39.219Z,13.60
2023-01-19T19:46:09.280Z,14.02
2023-01-19T19:48:39.232Z,13.38
2023-01-19T19:51:17.426Z,12.43
2023-01-19T19:53:46.042Z,12.37
2023-01-19T19:56:15.463Z,11.15
2023-01-19T19:58:43.412Z,10.25
2023-01-19T20:01:16.986Z,11.10
2023-01-19T20:03:44.448Z,9.68
2023-01-19T20:06:17.652Z,8.70
2023-01-19T20:08:44.811Z,7.72
2023-01-19T20:11:14.545Z,7.75
2023-01-19T20:13:43.393Z,7.72
2023-01-19T20:16:12.861Z,7.78
2023-01-19T20:18:44.626Z,11.53
2023-01-19T20:21:17.664Z,10.38
2023-01-19T20:23:45.832Z,9.50
2023-01-19T20:26:14.934Z,7.28
2023-01-19T20:28:42.296Z,7.80
2023-01-19T20:31:14.113Z,6.70
2023-01-19T20:33:41.605Z,7.35
2023-01-19T20:36:09.896Z,8.88
2023-01-19T20:38:38.157Z,10.88
2023-01-19T20:41:05.529Z,9.20
2023-01-19T20:43:32.758Z,10.20
2023-01-19T20:45:59.730Z,9.50
2023-01-19T20:48:27.147Z,8.10
2023-01-19T20:51:02.193Z,8.43
2023-01-19T20:53:29.975Z,7.25
2023-01-19T20:55:56.976Z,7.37
2023-01-19T20:58:24.274Z,8.50
2023-01-19T21:00:51.379Z,11.20
2023-01-19T21:03:18.225Z,11.77
2023-01-19T21:05:47.451Z,9.90
2023-01-19T21:08:15.114Z,8.90
2023-01-19T21:10:43.124Z,7.95
2023-01-19T21:13:09.921Z,6.55
2023-01-19T21:15:36.983Z,6.22
2023-01-19T21:18:04.064Z,6.88
2023-01-19T21:20:31.171Z,6.67
2023-01-19T21:22:58.120Z,8.20
2023-01-19T21:25:25.273Z,9.82
2023-01-19T21:27:52.309Z,8.38
2023-01-19T21:30:19.405Z,8.25
2023-01-19T21:32:46.288Z,14.33
2023-01-19T21:35:13.417Z,12.50
2023-01-19T21:37:40.506Z,13.80
2023-01-19T21:40:08.029Z,10.85
2023-01-19T21:42:35.368Z,13.98
2023-01-19T21:45:02.279Z,12.97
2023-01-19T21:47:29.274Z,10.55
2023-01-19T21:49:56.342Z,11.60
2023-01-19T21:52:23.183Z,10.88
2023-01-19T21:54:50.255Z,9.50
2023-01-19T21:57:17.136Z,7.77
2023-01-19T21:59:44.191Z,8.27
2023-01-19T22:02:12.564Z,6.65
2023-01-19T22:04:39.751Z,7.32
2023-01-19T22:07:06.948Z,6.65
2023-01-19T22:09:34.908Z,6.60
2023-01-19T22:12:02.284Z,6.10
2023-01-19T22:14:29.477Z,5.93
2023-01-19T22:16:56.643Z,7.35
2023-01-19T22:19:23.758Z,11.82
2023-01-19T22:21:50.687Z,9.17
2023-01-19T22:24:17.683Z,13.18
2023-01-19T22:26:44.749Z,15.43
2023-01-19T22:29:12.087Z,15.63
2023-01-19T22:31:40.228Z,13.80
2023-01-19T22:34:07.269Z,15.80
2023-01-19T22:36:34.173Z,16.73
2023-01-19T22:39:06.121Z,13.23
2023-01-19T22:41:35.765Z,13.85
2023-01-19T22:44:06.087Z,13.25
2023-01-19T22:46:35.842Z,12.43
2023-01-19T22:49:03.329Z,13.13
2023-01-19T22:51:31.711Z,15.02
2023-01-19T22:53:58.889Z,13.77
2023-01-19T22:56:27.693Z,16.90
2023-01-19T22:58:56.620Z,13.93
2023-01-19T23:01:26.383Z,15.00
2023-01-19T23:03:54.617Z,14.32
2023-01-19T23:06:27.177Z,12.60
2023-01-19T23:08:59.656Z,11.32
2023-01-19T23:11:35.706Z,10.63
2023-01-19T23:14:04.027Z,13.38
2023-01-19T23:16:31.175Z,13.18
2023-01-19T23:18:58.794Z,13.57
2023-01-19T23:21:28.015Z,13.63
2023-01-19T23:23:56.904Z,10.67
2023-01-19T23:26:24.927Z,8.63
2023-01-19T23:28:56.375Z,8.43
2023-01-19T23:31:26.074Z,8.02
2023-01-19T23:33:55.795Z,6.88
2023-01-19T23:36:26.694Z,7.50
2023-01-19T23:39:07.779Z,8.20
2023-01-19T23:41:34.746Z,10.93
2023-01-19T23:44:02.353Z,10.27
2023-01-19T23:46:29.771Z,14.00
2023-01-19T23:48:57.524Z,13.90
2023-01-19T23:51:29.763Z,12.70
2023-01-19T23:53:58.188Z,13.38
2023-01-19T23:56:27.986Z,14.90
2023-01-19T23:58:59.933Z,12.77
